sensor_id;sensor_type;location;lat;lon;timestamp;temperature;humidity
57566;DHT22;63999;43.882;-0.310;2023-07-29T00:01:09;24.10;76.10
57566;DHT22;63999;43.882;-0.310;2023-07-29T00:03:35;24.00;75.10
57566;DHT22;63999;43.882;-0.310;2023-07-29T00:06:03;24.00;75.20
57566;DHT22;63999;43.882;-0.310;2023-07-29T00:08:29;24.00;75.00
57566;DHT22;63999;43.882;-0.310;2023-07-29T00:10:58;24.00;75.20
57566;DHT22;63999;43.882;-0.310;2023-07-29T00:13:24;24.00;75.30
57566;DHT22;63999;43.882;-0.310;2023-07-29T00:15:53;24.00;75.10
57566;DHT22;63999;43.882;-0.310;2023-07-29T00:18:19;24.00;75.10
57566;DHT22;63999;43.882;-0.310;2023-07-29T00:20:45;23.90;75.20
57566;DHT22;63999;43.882;-0.310;2023-07-29T00:23:13;23.90;75.30
57566;DHT22;63999;43.882;-0.310;2023-07-29T00:25:41;23.90;75.00
57566;DHT22;63999;43.882;-0.310;2023-07-29T00:28:09;23.90;75.10
57566;DHT22;63999;43.882;-0.310;2023-07-29T00:30:35;23.90;75.30
57566;DHT22;63999;43.882;-0.310;2023-07-29T00:33:03;23.90;75.20
57566;DHT22;63999;43.882;-0.310;2023-07-29T00:35:29;23.90;75.40
57566;DHT22;63999;43.882;-0.310;2023-07-29T00:37:58;23.90;75.10
57566;DHT22;63999;43.882;-0.310;2023-07-29T00:40:28;23.90;75.30
57566;DHT22;63999;43.882;-0.310;2023-07-29T00:42:57;23.90;75.50
57566;DHT22;63999;43.882;-0.310;2023-07-29T00:45:27;23.90;75.20
57566;DHT22;63999;43.882;-0.310;2023-07-29T00:47:54;23.80;74.80
57566;DHT22;63999;43.882;-0.310;2023-07-29T00:50:20;23.80;74.90
57566;DHT22;63999;43.882;-0.310;2023-07-29T00:52:47;23.80;74.70
57566;DHT22;63999;43.882;-0.310;2023-07-29T00:55:14;23.70;74.70
57566;DHT22;63999;43.882;-0.310;2023-07-29T00:57:40;23.60;74.80
57566;DHT22;63999;43.882;-0.310;2023-07-29T01:00:14;23.60;74.90
57566;DHT22;63999;43.882;-0.310;2023-07-29T01:02:44;23.60;74.90
57566;DHT22;63999;43.882;-0.310;2023-07-29T01:05:16;23.60;74.70
57566;DHT22;63999;43.882;-0.310;2023-07-29T01:07:51;23.60;74.70
57566;DHT22;63999;43.882;-0.310;2023-07-29T01:13:16;23.50;74.60
57566;DHT22;63999;43.882;-0.310;2023-07-29T01:18:50;23.40;74.80
57566;DHT22;63999;43.882;-0.310;2023-07-29T01:21:18;23.40;74.60
57566;DHT22;63999;43.882;-0.310;2023-07-29T01:23:45;23.30;74.60
57566;DHT22;63999;43.882;-0.310;2023-07-29T01:26:11;23.30;74.60
57566;DHT22;63999;43.882;-0.310;2023-07-29T01:28:36;23.30;74.50
57566;DHT22;63999;43.882;-0.310;2023-07-29T01:31:22;23.20;74.70
57566;DHT22;63999;43.882;-0.310;2023-07-29T01:33:56;23.20;74.70
57566;DHT22;63999;43.882;-0.310;2023-07-29T01:36:27;23.20;74.60
57566;DHT22;63999;43.882;-0.310;2023-07-29T01:38:57;23.20;74.60
57566;DHT22;63999;43.882;-0.310;2023-07-29T01:41:26;23.10;74.60
57566;DHT22;63999;43.882;-0.310;2023-07-29T01:43:53;23.10;74.80
57566;DHT22;63999;43.882;-0.310;2023-07-29T01:46:20;23.10;74.70
57566;DHT22;63999;43.882;-0.310;2023-07-29T01:48:48;23.10;74.80
57566;DHT22;63999;43.882;-0.310;2023-07-29T01:51:14;23.10;74.60
57566;DHT22;63999;43.882;-0.310;2023-07-29T01:53:40;23.10;74.60
57566;DHT22;63999;43.882;-0.310;2023-07-29T01:56:06;23.00;75.00
57566;DHT22;63999;43.882;-0.310;2023-07-29T01:58:35;23.10;74.80
57566;DHT22;63999;43.882;-0.310;2023-07-29T02:01:04;23.10;74.60
57566;DHT22;63999;43.882;-0.310;2023-07-29T02:03:29;23.00;74.70
57566;DHT22;63999;43.882;-0.310;2023-07-29T02:05:58;23.00;74.80
57566;DHT22;63999;43.882;-0.310;2023-07-29T02:08:24;23.00;74.80
57566;DHT22;63999;43.882;-0.310;2023-07-29T02:10:50;23.00;74.90
57566;DHT22;63999;43.882;-0.310;2023-07-29T02:13:16;23.00;74.80
57566;DHT22;63999;43.882;-0.310;2023-07-29T02:15:45;23.00;74.80
57566;DHT22;63999;43.882;-0.310;2023-07-29T02:18:11;23.00;74.60
57566;DHT22;63999;43.882;-0.310;2023-07-29T02:20:37;22.90;74.60
57566;DHT22;63999;43.882;-0.310;2023-07-29T02:23:02;22.90;74.70
57566;DHT22;63999;43.882;-0.310;2023-07-29T02:25:28;22.80;74.70
57566;DHT22;63999;43.882;-0.310;2023-07-29T02:27:54;22.80;74.70
57566;DHT22;63999;43.882;-0.310;2023-07-29T02:30:21;22.80;74.70
57566;DHT22;63999;43.882;-0.310;2023-07-29T02:32:47;22.80;74.70
57566;DHT22;63999;43.882;-0.310;2023-07-29T02:35:17;22.80;74.80
57566;DHT22;63999;43.882;-0.310;2023-07-29T02:37:46;22.80;74.60
57566;DHT22;63999;43.882;-0.310;2023-07-29T02:40:20;22.80;74.70
57566;DHT22;63999;43.882;-0.310;2023-07-29T02:42:48;22.80;74.70
57566;DHT22;63999;43.882;-0.310;2023-07-29T02:45:17;22.70;74.60
57566;DHT22;63999;43.882;-0.310;2023-07-29T02:47:47;22.70;74.70
57566;DHT22;63999;43.882;-0.310;2023-07-29T02:50:13;22.70;74.60
57566;DHT22;63999;43.882;-0.310;2023-07-29T02:52:39;22.70;74.50
57566;DHT22;63999;43.882;-0.310;2023-07-29T02:55:09;22.70;74.60
57566;DHT22;63999;43.882;-0.310;2023-07-29T02:57:37;22.60;74.60
57566;DHT22;63999;43.882;-0.310;2023-07-29T03:00:06;22.60;74.60
57566;DHT22;63999;43.882;-0.310;2023-07-29T03:02:32;22.60;74.60
57566;DHT22;63999;43.882;-0.310;2023-07-29T03:04:58;22.60;74.60
57566;DHT22;63999;43.882;-0.310;2023-07-29T03:07:27;22.60;74.60
57566;DHT22;63999;43.882;-0.310;2023-07-29T03:10:02;22.60;74.50
57566;DHT22;63999;43.882;-0.310;2023-07-29T03:12:28;22.50;74.50
57566;DHT22;63999;43.882;-0.310;2023-07-29T03:14:56;22.50;74.50
57566;DHT22;63999;43.882;-0.310;2023-07-29T03:17:28;22.50;74.50
57566;DHT22;63999;43.882;-0.310;2023-07-29T03:19:57;22.50;74.50
57566;DHT22;63999;43.882;-0.310;2023-07-29T03:22:23;22.40;74.40
57566;DHT22;63999;43.882;-0.310;2023-07-29T03:24:49;22.30;74.40
57566;DHT22;63999;43.882;-0.310;2023-07-29T03:27:18;22.30;74.50
57566;DHT22;63999;43.882;-0.310;2023-07-29T03:29:43;22.20;74.60
57566;DHT22;63999;43.882;-0.310;2023-07-29T03:32:13;22.20;74.50
57566;DHT22;63999;43.882;-0.310;2023-07-29T03:34:41;22.20;74.50
57566;DHT22;63999;43.882;-0.310;2023-07-29T03:37:12;22.10;74.40
57566;DHT22;63999;43.882;-0.310;2023-07-29T03:39:38;22.10;74.60
57566;DHT22;63999;43.882;-0.310;2023-07-29T03:42:07;22.10;74.70
57566;DHT22;63999;43.882;-0.310;2023-07-29T03:44:33;22.10;74.70
57566;DHT22;63999;43.882;-0.310;2023-07-29T03:47:01;22.10;74.70
57566;DHT22;63999;43.882;-0.310;2023-07-29T03:49:29;22.10;74.60
57566;DHT22;63999;43.882;-0.310;2023-07-29T03:51:55;22.20;74.50
57566;DHT22;63999;43.882;-0.310;2023-07-29T03:54:24;22.10;74.50
57566;DHT22;63999;43.882;-0.310;2023-07-29T03:56:50;22.10;74.50
57566;DHT22;63999;43.882;-0.310;2023-07-29T03:59:19;22.10;74.50
57566;DHT22;63999;43.882;-0.310;2023-07-29T04:01:50;22.10;74.50
57566;DHT22;63999;43.882;-0.310;2023-07-29T04:04:16;22.00;74.60
57566;DHT22;63999;43.882;-0.310;2023-07-29T04:06:44;22.00;74.70
57566;DHT22;63999;43.882;-0.310;2023-07-29T04:09:13;22.00;74.80
57566;DHT22;63999;43.882;-0.310;2023-07-29T04:11:39;22.00;74.90
57566;DHT22;63999;43.882;-0.310;2023-07-29T04:14:08;22.00;74.90
57566;DHT22;63999;43.882;-0.310;2023-07-29T04:16:34;21.90;74.90
57566;DHT22;63999;43.882;-0.310;2023-07-29T04:18:59;21.90;75.00
57566;DHT22;63999;43.882;-0.310;2023-07-29T04:21:25;21.90;75.00
57566;DHT22;63999;43.882;-0.310;2023-07-29T04:23:51;21.90;75.00
57566;DHT22;63999;43.882;-0.310;2023-07-29T04:26:20;22.00;75.00
57566;DHT22;63999;43.882;-0.310;2023-07-29T04:28:49;22.00;74.90
57566;DHT22;63999;43.882;-0.310;2023-07-29T04:31:18;22.00;75.00
57566;DHT22;63999;43.882;-0.310;2023-07-29T04:33:47;22.00;75.00
57566;DHT22;63999;43.882;-0.310;2023-07-29T04:36:13;21.90;75.10
57566;DHT22;63999;43.882;-0.310;2023-07-29T04:38:39;21.90;75.00
57566;DHT22;63999;43.882;-0.310;2023-07-29T04:41:05;21.90;75.20
57566;DHT22;63999;43.882;-0.310;2023-07-29T04:43:33;21.90;75.20
57566;DHT22;63999;43.882;-0.310;2023-07-29T04:45:59;21.90;75.20
57566;DHT22;63999;43.882;-0.310;2023-07-29T04:48:25;21.90;75.20
57566;DHT22;63999;43.882;-0.310;2023-07-29T04:50:57;21.90;75.20
57566;DHT22;63999;43.882;-0.310;2023-07-29T04:53:28;21.90;75.10
57566;DHT22;63999;43.882;-0.310;2023-07-29T04:55:54;21.90;75.20
57566;DHT22;63999;43.882;-0.310;2023-07-29T04:58:22;21.90;75.20
57566;DHT22;63999;43.882;-0.310;2023-07-29T05:00:48;21.90;75.20
57566;DHT22;63999;43.882;-0.310;2023-07-29T05:03:17;21.90;75.20
57566;DHT22;63999;43.882;-0.310;2023-07-29T05:05:43;21.80;75.30
57566;DHT22;63999;43.882;-0.310;2023-07-29T05:08:19;21.80;75.40
57566;DHT22;63999;43.882;-0.310;2023-07-29T05:10:48;21.90;75.30
57566;DHT22;63999;43.882;-0.310;2023-07-29T05:13:15;21.90;75.30
57566;DHT22;63999;43.882;-0.310;2023-07-29T05:15:41;21.80;75.30
57566;DHT22;63999;43.882;-0.310;2023-07-29T05:18:07;21.90;75.40
57566;DHT22;63999;43.882;-0.310;2023-07-29T05:20:35;21.90;75.40
57566;DHT22;63999;43.882;-0.310;2023-07-29T05:23:04;21.90;75.20
57566;DHT22;63999;43.882;-0.310;2023-07-29T05:25:30;21.90;75.30
57566;DHT22;63999;43.882;-0.310;2023-07-29T05:28:03;21.90;75.30
57566;DHT22;63999;43.882;-0.310;2023-07-29T05:30:32;21.90;75.30
57566;DHT22;63999;43.882;-0.310;2023-07-29T05:33:06;21.90;75.30
57566;DHT22;63999;43.882;-0.310;2023-07-29T05:35:38;21.80;75.40
57566;DHT22;63999;43.882;-0.310;2023-07-29T05:38:04;21.80;75.50
57566;DHT22;63999;43.882;-0.310;2023-07-29T05:40:32;21.80;75.50
57566;DHT22;63999;43.882;-0.310;2023-07-29T05:43:03;21.80;75.50
57566;DHT22;63999;43.882;-0.310;2023-07-29T05:45:32;21.90;75.50
57566;DHT22;63999;43.882;-0.310;2023-07-29T05:47:58;21.80;75.60
57566;DHT22;63999;43.882;-0.310;2023-07-29T05:50:29;21.80;75.60
57566;DHT22;63999;43.882;-0.310;2023-07-29T05:52:55;21.80;75.70
57566;DHT22;63999;43.882;-0.310;2023-07-29T05:55:24;21.80;75.70
57566;DHT22;63999;43.882;-0.310;2023-07-29T05:57:53;21.80;75.80
57566;DHT22;63999;43.882;-0.310;2023-07-29T06:00:20;21.90;75.90
57566;DHT22;63999;43.882;-0.310;2023-07-29T06:02:49;21.90;75.90
57566;DHT22;63999;43.882;-0.310;2023-07-29T06:05:17;21.90;75.90
57566;DHT22;63999;43.882;-0.310;2023-07-29T06:07:46;21.90;75.90
57566;DHT22;63999;43.882;-0.310;2023-07-29T06:10:16;21.90;76.00
57566;DHT22;63999;43.882;-0.310;2023-07-29T06:12:45;21.90;76.00
57566;DHT22;63999;43.882;-0.310;2023-07-29T06:15:11;21.90;76.00
57566;DHT22;63999;43.882;-0.310;2023-07-29T06:17:38;21.90;76.00
57566;DHT22;63999;43.882;-0.310;2023-07-29T06:20:09;21.90;76.00
57566;DHT22;63999;43.882;-0.310;2023-07-29T06:22:35;21.90;76.10
57566;DHT22;63999;43.882;-0.310;2023-07-29T06:25:01;21.90;76.10
57566;DHT22;63999;43.882;-0.310;2023-07-29T06:27:27;22.00;76.10
57566;DHT22;63999;43.882;-0.310;2023-07-29T06:29:53;22.10;77.90
57566;DHT22;63999;43.882;-0.310;2023-07-29T06:32:19;22.30;78.20
57566;DHT22;63999;43.882;-0.310;2023-07-29T06:34:45;22.40;78.20
57566;DHT22;63999;43.882;-0.310;2023-07-29T06:37:16;22.50;78.20
57566;DHT22;63999;43.882;-0.310;2023-07-29T06:39:42;22.50;78.40
57566;DHT22;63999;43.882;-0.310;2023-07-29T06:42:08;22.50;78.40
57566;DHT22;63999;43.882;-0.310;2023-07-29T06:44:40;22.50;78.20
57566;DHT22;63999;43.882;-0.310;2023-07-29T06:47:06;22.50;78.60
57566;DHT22;63999;43.882;-0.310;2023-07-29T06:49:34;22.50;78.60
57566;DHT22;63999;43.882;-0.310;2023-07-29T06:52:01;22.50;78.90
57566;DHT22;63999;43.882;-0.310;2023-07-29T06:54:27;22.50;78.80
57566;DHT22;63999;43.882;-0.310;2023-07-29T06:56:55;22.50;77.60
57566;DHT22;63999;43.882;-0.310;2023-07-29T06:59:21;22.50;77.80
57566;DHT22;63999;43.882;-0.310;2023-07-29T07:01:47;22.30;77.10
57566;DHT22;63999;43.882;-0.310;2023-07-29T07:04:13;22.20;77.00
57566;DHT22;63999;43.882;-0.310;2023-07-29T07:06:39;22.20;77.90
57566;DHT22;63999;43.882;-0.310;2023-07-29T07:09:05;22.20;77.40
57566;DHT22;63999;43.882;-0.310;2023-07-29T07:11:30;22.30;77.60
57566;DHT22;63999;43.882;-0.310;2023-07-29T07:14:02;22.30;77.70
57566;DHT22;63999;43.882;-0.310;2023-07-29T07:16:28;22.30;77.10
57566;DHT22;63999;43.882;-0.310;2023-07-29T07:18:56;22.30;77.50
57566;DHT22;63999;43.882;-0.310;2023-07-29T07:21:22;22.30;77.60
57566;DHT22;63999;43.882;-0.310;2023-07-29T07:23:53;22.30;77.70
57566;DHT22;63999;43.882;-0.310;2023-07-29T07:26:19;22.30;78.60
57566;DHT22;63999;43.882;-0.310;2023-07-29T07:28:50;22.40;77.20
57566;DHT22;63999;43.882;-0.310;2023-07-29T07:31:17;22.30;77.00
57566;DHT22;63999;43.882;-0.310;2023-07-29T07:33:43;22.30;78.30
57566;DHT22;63999;43.882;-0.310;2023-07-29T07:36:09;22.30;77.50
57566;DHT22;63999;43.882;-0.310;2023-07-29T07:38:34;22.40;78.10
57566;DHT22;63999;43.882;-0.310;2023-07-29T07:41:06;22.30;76.80
57566;DHT22;63999;43.882;-0.310;2023-07-29T07:43:32;22.30;77.20
57566;DHT22;63999;43.882;-0.310;2023-07-29T07:46:01;22.30;77.50
57566;DHT22;63999;43.882;-0.310;2023-07-29T07:48:30;22.50;78.00
57566;DHT22;63999;43.882;-0.310;2023-07-29T07:50:58;22.50;79.00
57566;DHT22;63999;43.882;-0.310;2023-07-29T07:53:24;22.50;78.30
57566;DHT22;63999;43.882;-0.310;2023-07-29T07:55:57;22.50;77.50
57566;DHT22;63999;43.882;-0.310;2023-07-29T07:58:26;22.50;78.20
57566;DHT22;63999;43.882;-0.310;2023-07-29T08:00:52;22.50;77.70
57566;DHT22;63999;43.882;-0.310;2023-07-29T08:03:23;22.50;78.10
57566;DHT22;63999;43.882;-0.310;2023-07-29T08:05:49;22.60;78.90
57566;DHT22;63999;43.882;-0.310;2023-07-29T08:08:17;22.50;77.50
57566;DHT22;63999;43.882;-0.310;2023-07-29T08:10:43;22.50;78.10
57566;DHT22;63999;43.882;-0.310;2023-07-29T08:13:15;22.60;77.50
57566;DHT22;63999;43.882;-0.310;2023-07-29T08:15:46;22.60;78.10
57566;DHT22;63999;43.882;-0.310;2023-07-29T08:18:12;22.60;77.90
57566;DHT22;63999;43.882;-0.310;2023-07-29T08:20:38;22.60;79.00
57566;DHT22;63999;43.882;-0.310;2023-07-29T08:23:06;22.60;77.90
57566;DHT22;63999;43.882;-0.310;2023-07-29T08:25:32;22.70;77.80
57566;DHT22;63999;43.882;-0.310;2023-07-29T08:28:06;22.70;77.70
57566;DHT22;63999;43.882;-0.310;2023-07-29T08:30:32;22.70;77.80
57566;DHT22;63999;43.882;-0.310;2023-07-29T08:33:04;22.80;78.30
57566;DHT22;63999;43.882;-0.310;2023-07-29T08:35:35;22.80;77.50
57566;DHT22;63999;43.882;-0.310;2023-07-29T08:38:02;22.80;78.60
57566;DHT22;63999;43.882;-0.310;2023-07-29T08:40:29;22.90;78.10
57566;DHT22;63999;43.882;-0.310;2023-07-29T08:42:59;22.90;78.60
57566;DHT22;63999;43.882;-0.310;2023-07-29T08:45:35;22.90;77.80
57566;DHT22;63999;43.882;-0.310;2023-07-29T08:48:03;23.00;78.50
57566;DHT22;63999;43.882;-0.310;2023-07-29T08:50:36;23.00;78.60
57566;DHT22;63999;43.882;-0.310;2023-07-29T08:53:05;23.00;78.50
57566;DHT22;63999;43.882;-0.310;2023-07-29T08:55:32;23.10;78.20
57566;DHT22;63999;43.882;-0.310;2023-07-29T08:57:59;23.10;79.10
57566;DHT22;63999;43.882;-0.310;2023-07-29T09:00:31;23.10;78.70
57566;DHT22;63999;43.882;-0.310;2023-07-29T09:02:58;23.20;78.50
57566;DHT22;63999;43.882;-0.310;2023-07-29T09:05:28;23.20;78.50
57566;DHT22;63999;43.882;-0.310;2023-07-29T09:07:55;23.20;78.70
57566;DHT22;63999;43.882;-0.310;2023-07-29T09:10:25;23.20;78.80
57566;DHT22;63999;43.882;-0.310;2023-07-29T09:12:55;23.30;78.60
57566;DHT22;63999;43.882;-0.310;2023-07-29T09:15:33;23.30;78.50
57566;DHT22;63999;43.882;-0.310;2023-07-29T09:17:59;23.40;79.00
57566;DHT22;63999;43.882;-0.310;2023-07-29T09:20:26;23.40;78.60
57566;DHT22;63999;43.882;-0.310;2023-07-29T09:22:54;23.50;78.60
57566;DHT22;63999;43.882;-0.310;2023-07-29T09:25:27;23.40;78.70
57566;DHT22;63999;43.882;-0.310;2023-07-29T09:27:59;23.40;78.50
57566;DHT22;63999;43.882;-0.310;2023-07-29T09:30:26;23.50;78.70
57566;DHT22;63999;43.882;-0.310;2023-07-29T09:32:58;23.50;78.60
57566;DHT22;63999;43.882;-0.310;2023-07-29T09:35:28;23.50;79.10
57566;DHT22;63999;43.882;-0.310;2023-07-29T09:37:54;23.50;78.70
57566;DHT22;63999;43.882;-0.310;2023-07-29T09:40:23;23.40;78.80
57566;DHT22;63999;43.882;-0.310;2023-07-29T09:42:53;23.40;78.80
57566;DHT22;63999;43.882;-0.310;2023-07-29T09:45:24;23.40;78.70
57566;DHT22;63999;43.882;-0.310;2023-07-29T09:47:56;23.40;79.00
57566;DHT22;63999;43.882;-0.310;2023-07-29T09:50:26;23.40;78.80
57566;DHT22;63999;43.882;-0.310;2023-07-29T09:52:54;23.40;79.70
57566;DHT22;63999;43.882;-0.310;2023-07-29T09:55:27;23.50;78.70
57566;DHT22;63999;43.882;-0.310;2023-07-29T09:57:57;23.40;78.90
57566;DHT22;63999;43.882;-0.310;2023-07-29T10:00:30;23.60;80.10
57566;DHT22;63999;43.882;-0.310;2023-07-29T10:02:59;23.60;79.60
57566;DHT22;63999;43.882;-0.310;2023-07-29T10:05:26;23.90;78.30
57566;DHT22;63999;43.882;-0.310;2023-07-29T10:07:56;23.70;78.70
57566;DHT22;63999;43.882;-0.310;2023-07-29T10:10:22;23.70;78.50
57566;DHT22;63999;43.882;-0.310;2023-07-29T10:12:48;23.60;78.70
57566;DHT22;63999;43.882;-0.310;2023-07-29T10:15:18;23.60;79.30
57566;DHT22;63999;43.882;-0.310;2023-07-29T10:17:46;23.70;78.70
57566;DHT22;63999;43.882;-0.310;2023-07-29T10:20:17;23.70;79.20
57566;DHT22;63999;43.882;-0.310;2023-07-29T10:22:45;23.70;78.70
57566;DHT22;63999;43.882;-0.310;2023-07-29T10:25:22;23.60;79.00
57566;DHT22;63999;43.882;-0.310;2023-07-29T10:28:07;23.80;80.10
57566;DHT22;63999;43.882;-0.310;2023-07-29T10:30:34;24.00;78.90
57566;DHT22;63999;43.882;-0.310;2023-07-29T10:33:02;23.90;79.00
57566;DHT22;63999;43.882;-0.310;2023-07-29T10:35:35;23.90;78.80
57566;DHT22;63999;43.882;-0.310;2023-07-29T10:38:03;23.80;78.70
57566;DHT22;63999;43.882;-0.310;2023-07-29T10:40:49;23.70;79.20
57566;DHT22;63999;43.882;-0.310;2023-07-29T10:45:50;23.70;79.30
57566;DHT22;63999;43.882;-0.310;2023-07-29T10:51:40;23.80;79.60
57566;DHT22;63999;43.882;-0.310;2023-07-29T10:54:11;24.00;79.80
57566;DHT22;63999;43.882;-0.310;2023-07-29T10:56:41;24.00;79.70
57566;DHT22;63999;43.882;-0.310;2023-07-29T11:01:58;24.20;79.40
57566;DHT22;63999;43.882;-0.310;2023-07-29T11:04:29;24.20;78.40
57566;DHT22;63999;43.882;-0.310;2023-07-29T11:10:00;24.00;78.80
57566;DHT22;63999;43.882;-0.310;2023-07-29T11:12:46;24.00;79.40
57566;DHT22;63999;43.882;-0.310;2023-07-29T11:17:44;24.20;79.90
57566;DHT22;63999;43.882;-0.310;2023-07-29T11:20:10;24.20;78.90
57566;DHT22;63999;43.882;-0.310;2023-07-29T11:22:39;24.40;78.80
57566;DHT22;63999;43.882;-0.310;2023-07-29T11:25:06;24.30;78.60
57566;DHT22;63999;43.882;-0.310;2023-07-29T11:27:32;24.20;78.60
57566;DHT22;63999;43.882;-0.310;2023-07-29T11:30:07;24.20;79.20
57566;DHT22;63999;43.882;-0.310;2023-07-29T11:32:40;24.20;79.70
57566;DHT22;63999;43.882;-0.310;2023-07-29T11:35:17;24.50;78.30
57566;DHT22;63999;43.882;-0.310;2023-07-29T11:37:47;24.40;78.20
57566;DHT22;63999;43.882;-0.310;2023-07-29T11:40:18;24.40;78.70
57566;DHT22;63999;43.882;-0.310;2023-07-29T11:42:48;24.30;78.40
57566;DHT22;63999;43.882;-0.310;2023-07-29T11:45:16;24.30;80.10
57566;DHT22;63999;43.882;-0.310;2023-07-29T11:47:44;24.60;79.40
57566;DHT22;63999;43.882;-0.310;2023-07-29T11:50:15;24.60;78.90
57566;DHT22;63999;43.882;-0.310;2023-07-29T11:52:43;24.50;79.10
57566;DHT22;63999;43.882;-0.310;2023-07-29T11:55:12;24.50;79.80
57566;DHT22;63999;43.882;-0.310;2023-07-29T11:57:44;24.60;79.00
57566;DHT22;63999;43.882;-0.310;2023-07-29T12:00:18;24.50;78.20
57566;DHT22;63999;43.882;-0.310;2023-07-29T12:02:45;24.50;78.60
57566;DHT22;63999;43.882;-0.310;2023-07-29T12:05:12;24.70;79.70
57566;DHT22;63999;43.882;-0.310;2023-07-29T12:07:39;24.60;78.30
57566;DHT22;63999;43.882;-0.310;2023-07-29T12:10:09;24.80;79.90
57566;DHT22;63999;43.882;-0.310;2023-07-29T12:12:47;24.70;78.40
57566;DHT22;63999;43.882;-0.310;2023-07-29T12:15:26;25.00;79.70
57566;DHT22;63999;43.882;-0.310;2023-07-29T12:17:56;25.00;78.60
57566;DHT22;63999;43.882;-0.310;2023-07-29T12:20:22;24.80;79.40
57566;DHT22;63999;43.882;-0.310;2023-07-29T12:22:56;24.80;78.80
57566;DHT22;63999;43.882;-0.310;2023-07-29T12:25:22;24.90;78.80
57566;DHT22;63999;43.882;-0.310;2023-07-29T12:27:48;24.90;78.10
57566;DHT22;63999;43.882;-0.310;2023-07-29T12:30:14;24.80;79.10
57566;DHT22;63999;43.882;-0.310;2023-07-29T12:32:47;24.90;80.10
57566;DHT22;63999;43.882;-0.310;2023-07-29T12:35:15;25.00;79.10
57566;DHT22;63999;43.882;-0.310;2023-07-29T12:37:43;24.90;79.40
57566;DHT22;63999;43.882;-0.310;2023-07-29T12:40:29;24.80;78.40
57566;DHT22;63999;43.882;-0.310;2023-07-29T12:42:58;24.80;80.00
57566;DHT22;63999;43.882;-0.310;2023-07-29T12:45:24;25.00;79.20
57566;DHT22;63999;43.882;-0.310;2023-07-29T12:47:52;25.00;79.90
57566;DHT22;63999;43.882;-0.310;2023-07-29T12:50:21;25.00;79.20
57566;DHT22;63999;43.882;-0.310;2023-07-29T12:52:47;25.10;79.20
57566;DHT22;63999;43.882;-0.310;2023-07-29T12:55:12;25.20;78.90
57566;DHT22;63999;43.882;-0.310;2023-07-29T12:57:41;25.00;78.90
57566;DHT22;63999;43.882;-0.310;2023-07-29T13:00:08;25.20;78.50
57566;DHT22;63999;43.882;-0.310;2023-07-29T13:02:34;25.00;78.10
57566;DHT22;63999;43.882;-0.310;2023-07-29T13:05:02;25.00;78.70
57566;DHT22;63999;43.882;-0.310;2023-07-29T13:07:28;24.90;79.10
57566;DHT22;63999;43.882;-0.310;2023-07-29T13:09:57;24.80;79.60
57566;DHT22;63999;43.882;-0.310;2023-07-29T13:12:26;25.00;78.60
57566;DHT22;63999;43.882;-0.310;2023-07-29T13:14:51;25.00;79.20
57566;DHT22;63999;43.882;-0.310;2023-07-29T13:17:17;24.80;78.90
57566;DHT22;63999;43.882;-0.310;2023-07-29T13:19:43;24.70;79.60
57566;DHT22;63999;43.882;-0.310;2023-07-29T13:22:09;24.90;80.90
57566;DHT22;63999;43.882;-0.310;2023-07-29T13:24:37;25.10;78.80
57566;DHT22;63999;43.882;-0.310;2023-07-29T13:27:03;25.30;79.40
57566;DHT22;63999;43.882;-0.310;2023-07-29T13:29:31;25.30;78.50
57566;DHT22;63999;43.882;-0.310;2023-07-29T13:32:00;25.20;78.40
57566;DHT22;63999;43.882;-0.310;2023-07-29T13:34:31;25.10;78.70
57566;DHT22;63999;43.882;-0.310;2023-07-29T13:36:57;25.10;79.10
57566;DHT22;63999;43.882;-0.310;2023-07-29T13:39:25;25.30;79.70
57566;DHT22;63999;43.882;-0.310;2023-07-29T13:41:51;25.50;78.60
57566;DHT22;63999;43.882;-0.310;2023-07-29T13:44:19;25.50;78.80
57566;DHT22;63999;43.882;-0.310;2023-07-29T13:46:45;25.50;78.10
57566;DHT22;63999;43.882;-0.310;2023-07-29T13:49:10;25.30;78.70
57566;DHT22;63999;43.882;-0.310;2023-07-29T13:51:39;25.30;78.80
57566;DHT22;63999;43.882;-0.310;2023-07-29T13:54:07;25.40;79.40
57566;DHT22;63999;43.882;-0.310;2023-07-29T13:56:33;25.60;79.40
57566;DHT22;63999;43.882;-0.310;2023-07-29T13:58:59;25.60;78.60
57566;DHT22;63999;43.882;-0.310;2023-07-29T14:01:24;25.40;79.60
57566;DHT22;63999;43.882;-0.310;2023-07-29T14:03:53;25.40;79.00
57566;DHT22;63999;43.882;-0.310;2023-07-29T14:06:19;25.60;79.60
57566;DHT22;63999;43.882;-0.310;2023-07-29T14:08:44;25.80;78.80
57566;DHT22;63999;43.882;-0.310;2023-07-29T14:11:10;25.80;78.20
57566;DHT22;63999;43.882;-0.310;2023-07-29T14:13:36;25.80;78.40
57566;DHT22;63999;43.882;-0.310;2023-07-29T14:16:02;25.70;79.00
57566;DHT22;63999;43.882;-0.310;2023-07-29T14:18:36;25.70;78.90
57566;DHT22;63999;43.882;-0.310;2023-07-29T14:21:02;25.80;78.80
57566;DHT22;63999;43.882;-0.310;2023-07-29T14:23:30;25.80;78.20
57566;DHT22;63999;43.882;-0.310;2023-07-29T14:25:58;25.60;78.70
57566;DHT22;63999;43.882;-0.310;2023-07-29T14:28:23;25.60;79.70
57566;DHT22;63999;43.882;-0.310;2023-07-29T14:30:49;25.60;79.40
57566;DHT22;63999;43.882;-0.310;2023-07-29T14:33:19;25.70;79.50
57566;DHT22;63999;43.882;-0.310;2023-07-29T14:35:45;25.80;78.90
57566;DHT22;63999;43.882;-0.310;2023-07-29T14:38:11;25.70;78.10
57566;DHT22;63999;43.882;-0.310;2023-07-29T14:40:36;25.60;78.20
57566;DHT22;63999;43.882;-0.310;2023-07-29T14:43:05;25.60;79.20
57566;DHT22;63999;43.882;-0.310;2023-07-29T14:45:31;25.60;79.30
57566;DHT22;63999;43.882;-0.310;2023-07-29T14:47:57;25.80;78.50
57566;DHT22;63999;43.882;-0.310;2023-07-29T14:50:25;25.70;78.70
57566;DHT22;63999;43.882;-0.310;2023-07-29T14:52:51;25.80;78.30
57566;DHT22;63999;43.882;-0.310;2023-07-29T14:55:17;25.60;78.70
57566;DHT22;63999;43.882;-0.310;2023-07-29T14:57:42;25.60;78.50
57566;DHT22;63999;43.882;-0.310;2023-07-29T15:00:14;25.60;79.70
57566;DHT22;63999;43.882;-0.310;2023-07-29T15:02:42;25.60;78.70
57566;DHT22;63999;43.882;-0.310;2023-07-29T15:05:08;25.60;79.20
57566;DHT22;63999;43.882;-0.310;2023-07-29T15:07:34;25.60;78.50
57566;DHT22;63999;43.882;-0.310;2023-07-29T15:10:02;25.60;79.40
57566;DHT22;63999;43.882;-0.310;2023-07-29T15:12:28;25.70;78.70
57566;DHT22;63999;43.882;-0.310;2023-07-29T15:14:54;25.70;78.90
57566;DHT22;63999;43.882;-0.310;2023-07-29T15:17:19;25.80;79.10
57566;DHT22;63999;43.882;-0.310;2023-07-29T15:19:45;25.90;78.80
57566;DHT22;63999;43.882;-0.310;2023-07-29T15:22:12;26.00;78.70
57566;DHT22;63999;43.882;-0.310;2023-07-29T15:24:37;26.20;78.20
57566;DHT22;63999;43.882;-0.310;2023-07-29T15:27:08;26.20;78.10
57566;DHT22;63999;43.882;-0.310;2023-07-29T15:29:34;26.30;78.30
57566;DHT22;63999;43.882;-0.310;2023-07-29T15:32:00;26.20;77.80
57566;DHT22;63999;43.882;-0.310;2023-07-29T15:34:25;26.20;78.50
57566;DHT22;63999;43.882;-0.310;2023-07-29T15:36:52;26.20;77.70
57566;DHT22;63999;43.882;-0.310;2023-07-29T15:39:17;26.10;78.00
57566;DHT22;63999;43.882;-0.310;2023-07-29T15:41:43;26.00;78.50